Preview of NWS' New Version of Forecast
This preview is not operational and should not be used for support decisions.
Latest weather observations around

CW5634 Ponderosa (C5634)

Using English Units (Switch to International System of Units)
Date/ Time (PDT) Wind (mph) Vis. (mi) Weather Sky Cond. Temp (°F) Rel. Humidity Wind Chill (°F) Heat Index (°F) Pressure Precip. (in)
Air Dwpt 6 hour Altimeter (inHg) Sea level (inHg) 1 hr 3 hr 6 hr
Max Min
Jun 19 02:01 Calm   Clear   87 30     13%   83          
Jun 19 01:31 Calm   Clear   88 31     13%   84          
Jun 19 01:01 Calm   Clear   88 29     12%   84          
Jun 19 00:31 Calm   Clear   89 30     12%   85          
Jun 19 00:01 Calm   Clear   89 28     11%   85          
Jun 18 23:31 SSE 1   Clear   90 28     11%   85          
Jun 18 23:01 Calm   Clear   91 29     11%   86          
Jun 18 22:31 Calm   Clear   93 28     10%   88          
Jun 18 22:01 S 3   Clear   94 29     10%   89          
Jun 18 21:31 Calm   Clear   94 27     9%   88          
Jun 18 21:01 SSE 2   Clear   96 25     8%   90          
Jun 18 20:31 SW 5   Clear   96 25     8%   90          
Jun 18 20:01 SSE 3   Clear   98 23     7%   91          
Jun 18 19:31 SSE 2   Clear   99 24     7%   92          
Jun 18 19:01 S 5   Clear   100 25     7%   93          
Jun 18 18:31 SSE 5   Clear   102 26     7%   95          
Jun 18 18:01 NNW 3   Clear   103 27     7%   96          
Jun 18 17:31 SSE 2   Clear   104 28     7%   97          
Jun 18 17:01 Calm   Clear   104 31     8%   97          
Jun 18 16:31 Calm   Clear   104 31     8%   97          
Jun 18 16:01 SSE 5   Clear   103 33     9%   97          
Jun 18 15:31 ESE 5   Clear   103 36     10%   97          
Jun 18 15:01 SE 5   Clear   103 36     10%   97          
Jun 18 14:31 SSE 6   Clear   104 39     11%   99          
Jun 18 14:01 ESE 5   Clear   103 41     12%   98          
Jun 18 13:31 SSE 6   Clear   103 38     11%   98          
Jun 18 13:01 SSE 4   Clear   101 41     13%   96          
Jun 18 12:31 SE 1   Clear   100 40     13%   95          
Jun 18 12:01 SE 3   Clear   100 44     15%   96          
Jun 18 11:31 ESE 5   Clear   97 43     16%   93          
Jun 18 11:01 E 2   Clear   97 45     17%   93          
Jun 18 10:31 Calm   Clear   97 48     19%   94          
Jun 18 10:01 S 3   Clear   93 47     21%   89          
Jun 18 09:31 S 5   Clear   92 48     22%   89          
Jun 18 09:01 SE 4   Clear   90 46     22%   87          
Jun 18 08:31 SSE 2   Clear   89 45     22%   86          
Jun 18 08:01 Calm   Clear   88 44     22%   85          
Jun 18 07:31 Calm   Clear   85 43     23%   82          
Jun 18 07:01 Calm   Clear   84 43     24%   82          
Jun 18 06:31 Calm   Clear   83 45     26%   81          
Jun 18 06:01 Calm   Clear   80 45     29%   79          
Jun 18 05:01 Calm   Clear   84 45     26%   82          
Jun 18 04:31 N 3   Clear   85 45     25%   82          
Jun 18 04:01 NNE 3   Clear   85 44     24%   82          
Jun 18 03:31 Calm   Clear   86 44     23%   83          
Jun 18 03:01 Calm   Clear   86 46     25%   83          
Jun 18 02:31 Calm   Clear   86 43     22%   83          
Jun 18 02:01 NW 2   Clear   87 40     19%   84          
Jun 18 01:31 N 2   Clear   87 37     17%   84          
Jun 18 01:01 NNW 2   Clear   87 37     17%   84          
Jun 18 00:31 Calm   Clear   88 38     17%   84          
Jun 18 00:01 Calm   Clear   88 38     17%   84          
Jun 17 23:31 Calm   Clear   90 36     15%   86          
Jun 17 23:01 Calm   Clear   91 37     15%   87          
Jun 17 22:31 Calm   Clear   93 37     14%   89          
Jun 17 22:01 Calm   Clear   93 35     13%   89          
Jun 17 21:31 Calm   Clear   93 35     13%   89          
Jun 17 21:01 Calm   Clear   94 36     13%   89          
Jun 17 20:31 Calm   Clear   95 38     14%   91          
Jun 17 20:01 Calm   Clear   97 38     13%   92          
Jun 17 19:31 S 1   Clear   98 39     13%   93          
Jun 17 19:01 SE 4   Clear   100 36     11%   94          
Jun 17 18:31 SE 6   Clear   101 37     11%   95          
Jun 17 18:01 SE 6   Clear   102 38     11%   96          
Jun 17 17:31 SSE 6   Clear   102 38     11%   96          
Jun 17 17:01 SE 5   Clear   103 38     11%   98          
Jun 17 16:31 ESE 8   Clear   103 38     11%   98          
Jun 17 16:01 SE 5   Clear   103 38     11%   98          
Jun 17 15:31 SSE 3   Clear   104 37     10%   98          
Jun 17 15:01 E 3   Clear   102 35     10%   96          
Jun 17 14:31 SE 4   Clear   102 35     10%   96          
Jun 17 14:01 ESE 6   Clear   101 39     12%   96          
Jun 17 13:31 SSW 5   Clear   101 43     14%   97          
Jun 17 13:01 S 9   Clear   101 41     13%   96          
Jun 17 12:31 Calm   Clear   100 46     16%   96          
Jun 17 12:01 SSE 4   Clear   99 45     16%   95          
Jun 17 11:31 SSW 2   Clear   98 47     18%   94          
Jun 17 11:01 Calm   Clear   98 49     19%   95          
Jun 17 10:31 ESE 5   Clear   96 50     21%   93          
Jun 17 10:01 SE 4   Clear   94 48     21%   91          
Jun 17 09:31 Calm   Clear   92 49     23%   89          
Jun 17 09:01 E 1   Clear   91 52     27%   88          
Jun 17 08:31 NW 4   Clear   89 54     30%   87          
Jun 17 08:01 NW 5   Clear   87 54     32%   85          
Jun 17 07:31 NNW 8   Clear   86 54     33%   84          
Jun 17 07:01 NNE 6   Clear   87 54     33%   85          
Jun 17 06:31 Calm   Clear   84 53     34%   82          
Jun 17 06:01 Calm   Clear   82 52     35%   81          
Jun 17 05:31 NNE 4   Clear   81 52     37%   80          
Jun 17 05:01 NNW 1   Clear   82 52     35%   81          
Jun 17 04:31 Calm   Clear   82 51     34%   81          
Jun 17 04:01 Calm   Clear   83 50     32%   81          
Jun 17 03:31 Calm   Clear   83 50     32%   81          
Jun 17 03:01 NNW 4   Clear   84 52     33%   82          
Jun 17 02:31 NNW 2   Clear   86 51     30%   84          
Jun 17 02:01 NNW 5   Clear   86 48     27%   83          
Jun 17 01:31 N 1   Clear   87 48     26%   84          
Jun 17 01:01 NNW 5   Clear   88 47     24%   85          
Jun 17 00:31 Calm   Clear   88 43     21%   85          
Jun 17 00:01 WNW 1   Clear   89 43     20%   85          
Jun 16 23:31 Calm   Clear   91 43     19%   87          
Jun 16 23:01 Calm   Clear   91 42     18%   87          
Jun 16 22:31 Calm   Clear   91 40     17%   87          
Jun 16 22:01 Calm   Clear   93 40     16%   89          
Jun 16 21:31 Calm   Clear   94 39     15%   90          
Jun 16 21:01 SSE 5   Clear   95 40     15%   91          
Jun 16 20:31 SSE 4   Clear   96 39     14%   91          
Jun 16 20:01 Calm   Clear   97 40     14%   92          
Jun 16 19:31 SSE 8   Clear   99 37     12%   94          
Jun 16 19:01 SSE 4   Clear   100 38     12%   95          
Jun 16 18:31 SE 5   Clear   101 37     11%   95          
Jun 16 18:01 SSW 5   Clear   102 40     12%   97          
Jun 16 17:31 SE 10   Clear   103 41     12%   98          
Jun 16 17:01 SE 14   Clear   103 43     13%   98          
Jun 16 16:31 SSE 12   Clear   104 45     14%   100          
Jun 16 16:01 ESE 10   Clear   103 46     15%   99          
Jun 16 15:31 ESE 8   Clear   102 46     15%   98          
Jun 16 15:01 ESE 5   Clear   103 46     15%   99          
Jun 16 14:31 SE 9   Clear   103 45     14%   99          
Jun 16 14:01 E 11   Clear   103 46     15%   99          
Jun 16 13:31 ESE 13   Clear   104 47     15%   100          
Jun 16 13:01 SW 7   Clear   103 46     15%   99          
Jun 16 12:31 SSE 5   Clear   102 47     16%   98          
Jun 16 12:01 SE 5   Clear   101 48     17%   98          
Jun 16 11:31 SSE 3   Clear   98 49     19%   95          
Jun 16 11:01 S 4   Clear   98 49     19%   95          
Jun 16 10:31 SSE 6   Clear   97 51     21%   94          
Jun 16 10:01 SW 5   Clear   94 49     22%   91          
Jun 16 09:31 SSE 6   Clear   94 52     24%   91          
Jun 16 09:01 SSW 2   Clear   92 51     25%   89          
Jun 16 08:31 SE 5   Clear   91 50     25%   88          
Jun 16 08:01 SE 5   Clear   89 47     24%   86          
Jun 16 07:31 SSE 6   Clear   90 47     23%   87          
Jun 16 07:01 SSE 4   Clear   89 46     23%   86          
Jun 16 06:31 S 1   Clear   88 47     24%   85          
Jun 16 06:01 SSW 1   Clear   84 46     27%   82          
Jun 16 05:31 Calm   Clear   83 47     29%   81          
Jun 16 05:01 Calm   Clear   86 46     25%   83          
Jun 16 04:31 Calm   Clear   88 46     23%   85          
Jun 16 04:01 Calm   Clear   89 45     22%   86          
Jun 16 03:31 SE 2   Clear   89 45     22%   86          
Jun 16 03:01 SW 2   Clear   90 46     22%   87          
Jun 16 02:31 SSE 2   Clear   89 45     22%   86          
Jun 16 02:01 Calm   Clear   90 46     22%   87          
Jun 16 01:31 SE 2   Clear   92 46     21%   88          
Jun 16 01:01 SW 3   Clear   92 45     20%   88          
May 14 09:30 S 3   Clear   79 38     23%   78          
May 14 03:31 SSE 2   Clear   73 33     23%   71          
May 13 19:01 E 4   Clear   83 31     15%   80          
May 11 23:31 WSW 6   Clear   79 39     24%   78          
May 11 22:31 S 7   Clear   83 36     19%   81          
May 11 20:01     Clear   88 35     15%   84          
May 11 16:31     Clear   96 35     12%   91